Time;durP1;ratioP1;P1;durP2;ratioP2;P2;SDS_P1;SDS_P2;PMS_P1;PMS_P2;Temp;Humidity;BMP_temperature;BMP_pressure;BME280_temperature;BME280_humidity;BME280_pressure;Samples;Min_cycle;Max_cycle;Signal;HPM_P1;HPM_P2
2022/07/17 04:08:34;;;;;;;2.25;1.00;;;18.80;62.90;;;;;;5758779;24;20021;-76
2022/07/17 04:11:00;;;;;;;3.33;0.93;;;18.70;62.70;;;;;;4877994;29;20064;-70
2022/07/17 04:13:25;;;;;;;5.05;1.00;;;18.70;63.40;;;;;;4882655;29;20064;-71
2022/07/17 04:15:59;;;;;;;4.93;0.90;;;18.80;63.40;;;;;;4883036;29;20149;-71
2022/07/17 04:18:30;;;;;;;4.80;1.17;;;18.80;62.90;;;;;;4882415;29;20052;-76
2022/07/17 04:20:58;;;;;;;3.90;1.08;;;18.90;62.70;;;;;;4883072;29;20060;-72
2022/07/17 04:23:24;;;;;;;4.25;1.10;;;18.90;62.50;;;;;;4883502;29;20180;-71
2022/07/17 07:59:03;;;;;;;4.47;0.90;;;18.90;63.60;;;;;;4787524;30;20074;-73
2022/07/17 08:01:30;;;;;;;7.00;0.98;;;19.00;63.70;;;;;;4792777;30;20099;-73
2022/07/17 08:03:55;;;;;;;3.67;0.70;;;19.10;63.80;;;;;;4792000;30;20059;-74
2022/07/17 08:06:21;;;;;;;5.63;1.20;;;19.10;63.60;;;;;;4791889;30;20116;-74
2022/07/17 08:08:47;;;;;;;7.40;1.02;;;19.20;63.70;;;;;;4792751;30;20532;-74
2022/07/17 08:11:14;;;;;;;3.25;0.88;;;19.20;63.70;;;;;;4792039;30;20055;-75
2022/07/17 08:13:40;;;;;;;3.83;0.82;;;19.20;63.70;;;;;;4792904;30;20128;-76
2022/07/17 08:16:06;;;;;;;9.45;0.85;;;19.20;63.90;;;;;;4792379;30;20078;-74
2022/07/17 08:18:32;;;;;;;4.72;1.02;;;19.30;64.00;;;;;;4792678;30;20086;-75
2022/07/17 08:20:58;;;;;;;7.50;0.98;;;19.30;64.00;;;;;;4792603;30;20043;-77
2022/07/17 08:23:24;;;;;;;5.53;0.95;;;19.30;64.20;;;;;;4792698;30;20143;-73
2022/07/17 08:25:49;;;;;;;8.10;1.10;;;19.40;64.40;;;;;;4792246;29;20047;-76
2022/07/17 08:28:15;;;;;;;7.95;0.63;;;19.40;64.20;;;;;;4793115;30;20107;-75
2022/07/17 08:30:41;;;;;;;6.88;1.00;;;19.50;64.30;;;;;;4792485;30;20124;-75
2022/07/17 08:33:08;;;;;;;3.47;0.65;;;19.50;64.20;;;;;;4792435;30;20059;-77
2022/07/17 08:35:35;;;;;;;4.05;1.33;;;19.60;64.60;;;;;;4792078;30;20058;-77
2022/07/17 08:38:01;;;;;;;6.13;1.08;;;19.60;64.60;;;;;;4792628;30;20364;-75
2022/07/17 08:40:30;;;;;;;6.35;0.80;;;19.60;64.00;;;;;;4792275;30;20056;-75
2022/07/17 08:42:57;;;;;;;3.05;0.73;;;19.60;63.90;;;;;;4792368;30;20047;-74
2022/07/17 08:45:24;;;;;;;6.57;1.00;;;19.60;63.90;;;;;;4792066;30;20055;-75
2022/07/17 08:47:54;;;;;;;7.95;0.80;;;19.70;63.90;;;;;;4791803;30;20485;-74
2022/07/17 08:50:24;;;;;;;3.08;0.65;;;19.70;63.80;;;;;;4791988;30;20055;-74
2022/07/17 08:52:50;;;;;;;12.02;1.63;;;19.70;63.90;;;;;;4791654;30;20061;-76
2022/07/17 08:55:17;;;;;;;4.13;0.85;;;19.80;63.90;;;;;;4792025;30;20130;-75
2022/07/17 08:57:45;;;;;;;2.10;0.50;;;19.80;63.80;;;;;;4792060;30;20519;-77
2022/07/17 09:00:13;;;;;;;4.18;0.70;;;19.80;63.80;;;;;;4790025;29;20390;-76
2022/07/17 09:02:40;;;;;;;2.78;0.90;;;19.80;63.80;;;;;;4791808;30;20143;-74
2022/07/17 09:05:07;;;;;;;5.07;0.63;;;19.90;63.90;;;;;;4791761;30;20435;-75
2022/07/17 09:07:33;;;;;;;3.50;0.50;;;19.90;63.80;;;;;;4792467;30;20059;-74
2022/07/17 09:09:59;;;;;;;3.63;0.65;;;19.90;63.20;;;;;;4790768;30;20463;-74
2022/07/17 09:12:26;;;;;;;3.30;1.30;;;19.90;63.20;;;;;;4791610;30;20138;-75
2022/07/17 09:14:52;;;;;;;4.00;0.77;;;19.90;63.30;;;;;;4791300;30;20047;-75
2022/07/17 09:17:18;;;;;;;5.00;0.77;;;19.90;63.40;;;;;;4791252;30;20117;-75
2022/07/17 09:19:48;;;;;;;3.58;1.05;;;20.00;63.40;;;;;;4791063;29;20062;-78
2022/07/17 09:22:15;;;;;;;1.50;0.52;;;20.00;63.30;;;;;;4790978;30;20498;-75
2022/07/17 09:24:44;;;;;;;2.72;0.52;;;20.00;63.30;;;;;;4790638;30;20443;-75
2022/07/17 09:27:13;;;;;;;3.05;0.88;;;20.00;63.20;;;;;;4791130;30;20055;-76
2022/07/17 09:29:59;;;;;;;2.67;0.73;;;20.10;63.30;;;;;;4791770;30;20063;-76
2022/07/17 09:32:27;;;;;;;2.80;0.65;;;20.10;63.30;;;;;;4791070;30;20063;-77
2022/07/17 09:34:55;;;;;;;2.72;0.98;;;20.10;63.30;;;;;;4791801;30;20070;-74
2022/07/17 09:37:26;;;;;;;3.53;0.52;;;20.10;63.80;;;;;;4775369;30;20463;-75
2022/07/17 09:39:53;;;;;;;3.08;0.82;;;20.10;63.20;;;;;;4789401;30;20088;-76
2022/07/17 09:42:28;;;;;;;3.22;0.65;;;20.20;63.30;;;;;;4791124;30;20067;-77
2022/07/17 09:45:05;;;;;;;2.50;0.77;;;20.20;63.30;;;;;;4791268;30;20051;-77
2022/07/17 09:47:33;;;;;;;2.50;0.60;;;20.20;63.10;;;;;;4790761;30;20055;-75
2022/07/17 09:50:00;;;;;;;3.30;0.75;;;20.20;63.00;;;;;;4790057;30;20091;-77
2022/07/17 09:52:32;;;;;;;3.47;0.65;;;20.20;62.90;;;;;;4790650;30;20522;-74
2022/07/17 09:54:59;;;;;;;2.22;0.65;;;20.20;62.80;;;;;;4790944;30;20066;-74
2022/07/17 09:57:33;;;;;;;3.80;0.70;;;20.20;62.50;;;;;;4790790;30;20379;-75
2022/07/17 10:00:06;;;;;;;3.13;0.88;;;20.20;62.60;;;;;;4790407;30;20062;-75
2022/07/17 10:02:33;;;;;;;1.65;0.80;;;20.20;62.60;;;;;;4790442;30;20059;-75
2022/07/17 10:04:59;;;;;;;3.58;0.80;;;20.20;62.60;;;;;;4791067;30;20059;-72
2022/07/17 10:07:25;;;;;;;5.57;0.90;;;20.20;62.70;;;;;;4790520;30;20047;-72
2022/07/17 10:09:51;;;;;;;2.58;0.85;;;20.30;62.90;;;;;;4790789;29;20055;-72
2022/07/17 10:12:19;;;;;;;4.43;1.13;;;20.30;62.90;;;;;;4774415;30;20085;-72
2022/07/17 10:14:47;;;;;;;2.28;0.70;;;20.30;62.90;;;;;;4790563;30;20090;-72
2022/07/17 10:17:19;;;;;;;2.72;0.77;;;20.30;62.80;;;;;;4791097;30;20051;-73
2022/07/17 10:19:50;;;;;;;2.83;0.63;;;20.30;62.90;;;;;;4790967;30;20116;-72
2022/07/17 10:22:16;;;;;;;3.92;0.90;;;20.30;63.00;;;;;;4790213;30;20130;-73
2022/07/17 10:25:05;;;;;;;3.80;0.88;;;20.30;63.00;;;;;;4789589;30;20055;-73
2022/07/17 10:27:31;;;;;;;2.00;1.02;;;20.40;63.10;;;;;;4774691;30;20091;-73
2022/07/17 10:30:05;;;;;;;2.60;0.65;;;20.40;63.20;;;;;;4790581;29;20051;-72
2022/07/17 10:32:32;;;;;;;2.67;0.47;;;20.40;63.20;;;;;;4790490;30;20097;-72
2022/07/17 10:35:10;;;;;;;6.03;0.65;;;20.40;63.20;;;;;;4789639;30;20063;-72
2022/07/17 10:37:35;;;;;;;1.73;0.50;;;20.40;63.30;;;;;;4789999;30;20059;-73
2022/07/17 10:40:25;;;;;;;5.10;0.85;;;20.40;63.30;;;;;;4790317;30;20055;-72
2022/07/17 10:43:01;;;;;;;3.78;0.90;;;20.40;63.30;;;;;;4790040;30;20047;-73
2022/07/17 10:45:39;;;;;;;4.30;0.68;;;20.40;63.40;;;;;;4789838;30;20474;-73
2022/07/17 10:48:08;;;;;;;3.70;1.05;;;20.40;63.10;;;;;;4790234;30;20066;-74
2022/07/17 10:50:45;;;;;;;4.05;0.60;;;20.40;63.20;;;;;;4788955;30;20540;-74
2022/07/17 10:53:25;;;;;;;5.93;1.05;;;20.40;63.80;;;;;;4789950;30;20340;-73
2022/07/17 10:55:57;;;;;;;8.70;1.63;;;20.40;63.20;;;;;;4790029;30;20087;-73
2022/07/17 10:58:26;;;;;;;10.70;1.30;;;20.50;63.30;;;;;;4790018;30;20102;-74
2022/07/17 11:01:17;;;;;;;6.40;1.05;;;20.50;63.30;;;;;;4789534;30;20055;-73
2022/07/17 11:03:50;;;;;;;4.93;1.13;;;20.40;63.50;;;;;;4789821;30;20051;-74
2022/07/17 11:06:22;;;;;;;6.00;1.13;;;20.50;63.60;;;;;;4789309;30;20047;-76
2022/07/17 11:08:53;;;;;;;6.68;1.05;;;20.50;63.60;;;;;;4789369;30;20055;-76
2022/07/17 11:11:45;;;;;;;3.70;0.77;;;20.50;63.70;;;;;;4789326;30;20055;-76
2022/07/17 11:14:22;;;;;;;6.90;0.70;;;20.50;63.70;;;;;;4785761;30;20063;-73
2022/07/17 11:16:52;;;;;;;7.65;1.23;;;20.50;63.70;;;;;;4790219;30;20062;-76
2022/07/17 11:19:30;;;;;;;6.50;1.33;;;20.50;63.80;;;;;;4789454;30;20554;-76
2022/07/17 11:21:57;;;;;;;4.07;0.95;;;20.50;63.80;;;;;;4789627;29;20083;-76
2022/07/17 11:24:25;;;;;;;4.30;1.02;;;20.50;63.80;;;;;;4793275;30;20070;-76
2022/07/17 11:26:52;;;;;;;5.00;1.50;;;20.50;63.80;;;;;;4793755;30;20055;-76
2022/07/17 11:29:18;;;;;;;3.78;0.77;;;20.50;63.80;;;;;;4793786;30;20062;-78
2022/07/17 11:31:44;;;;;;;4.20;1.20;;;20.50;63.70;;;;;;4793132;30;20077;-76
2022/07/17 11:34:11;;;;;;;4.28;0.80;;;20.50;63.70;;;;;;4793886;30;20131;-76
2022/07/17 11:36:42;;;;;;;3.65;0.80;;;20.50;63.70;;;;;;4793312;30;20090;-76
2022/07/17 11:39:11;;;;;;;4.90;1.02;;;20.50;63.60;;;;;;4792174;30;20093;-75
2022/07/17 11:41:38;;;;;;;5.60;0.88;;;20.50;63.60;;;;;;4792699;30;20058;-76
2022/07/17 11:44:09;;;;;;;5.78;1.30;;;20.50;63.70;;;;;;4793495;30;20055;-76
2022/07/17 11:46:35;;;;;;;3.70;0.70;;;20.50;63.70;;;;;;4793688;30;20055;-76
2022/07/17 11:49:02;;;;;;;4.85;0.93;;;20.50;63.60;;;;;;4793161;30;20062;-76
2022/07/17 11:51:40;;;;;;;6.35;1.20;;;20.50;63.60;;;;;;4793007;30;20059;-76
2022/07/17 11:54:12;;;;;;;3.90;0.90;;;20.50;63.60;;;;;;4792430;30;20062;-77
2022/07/17 11:56:39;;;;;;;2.08;0.90;;;20.50;63.60;;;;;;4792315;30;20459;-75
2022/07/17 11:59:06;;;;;;;4.05;0.70;;;20.50;63.60;;;;;;4776121;30;20059;-77
2022/07/17 12:01:45;;;;;;;2.60;0.68;;;20.50;63.60;;;;;;4792045;30;20451;-76
2022/07/17 12:04:14;;;;;;;6.50;0.90;;;20.50;63.60;;;;;;4792917;30;20454;-76
2022/07/17 12:06:40;;;;;;;2.70;0.63;;;20.50;63.60;;;;;;4793662;30;20337;-76
2022/07/17 12:09:07;;;;;;;1.60;0.80;;;20.50;63.70;;;;;;4793536;30;20062;-75
2022/07/17 12:11:44;;;;;;;2.92;0.80;;;20.50;63.60;;;;;;4793134;30;20343;-77
2022/07/17 12:14:10;;;;;;;1.88;0.60;;;20.50;63.60;;;;;;4793159;30;20055;-76
2022/07/17 12:16:36;;;;;;;5.47;1.17;;;20.50;63.60;;;;;;4792854;30;20459;-77
2022/07/17 12:19:08;;;;;;;4.18;0.85;;;20.50;63.60;;;;;;4792921;30;20062;-78
2022/07/17 12:21:47;;;;;;;2.42;0.75;;;20.60;63.60;;;;;;4791745;30;20475;-77
2022/07/17 12:24:21;;;;;;;1.98;0.80;;;20.60;63.60;;;;;;4792873;29;20116;-76
2022/07/17 12:26:47;;;;;;;1.92;1.10;;;20.60;63.60;;;;;;4791971;30;20459;-76
2022/07/17 12:29:13;;;;;;;1.33;0.50;;;20.50;63.60;;;;;;4792522;30;20055;-76
2022/07/17 12:31:38;;;;;;;2.90;0.70;;;20.50;63.60;;;;;;4792407;30;20459;-76
2022/07/17 12:34:04;;;;;;;1.00;0.60;;;20.50;63.60;;;;;;4792477;29;20051;-77
2022/07/17 12:36:30;;;;;;;3.20;0.80;;;20.60;63.60;;;;;;4792409;30;20501;-75
2022/07/17 12:38:55;;;;;;;1.48;0.70;;;20.50;63.60;;;;;;4792791;30;20043;-78
2022/07/17 12:41:21;;;;;;;2.00;0.55;;;20.50;63.60;;;;;;4792117;30;20353;-76
2022/07/17 12:43:47;;;;;;;2.35;0.63;;;20.50;63.60;;;;;;4792436;30;20047;-75
2022/07/17 12:46:13;;;;;;;1.52;0.70;;;20.60;64.30;;;;;;4792378;30;20197;-78
2022/07/17 12:48:41;;;;;;;1.92;0.55;;;20.60;63.60;;;;;;4791383;30;20520;-76
2022/07/17 12:51:08;;;;;;;2.35;0.57;;;20.50;63.60;;;;;;4792495;30;20059;-77
2022/07/17 12:53:35;;;;;;;1.85;0.70;;;20.60;63.70;;;;;;4791856;30;20051;-75
2022/07/17 12:56:02;;;;;;;2.47;0.50;;;20.60;63.70;;;;;;4792156;30;20124;-77
2022/07/17 12:58:28;;;;;;;2.88;0.88;;;20.50;63.60;;;;;;4791621;30;20075;-77
2022/07/17 13:00:54;;;;;;;1.25;0.60;;;20.50;63.70;;;;;;4791861;30;20104;-76
2022/07/17 13:03:20;;;;;;;1.38;0.60;;;20.60;63.70;;;;;;4791282;30;20055;-77
2022/07/17 13:05:46;;;;;;;3.08;0.60;;;20.60;63.80;;;;;;4791522;30;20217;-77
2022/07/17 13:08:12;;;;;;;1.73;0.77;;;20.50;63.70;;;;;;4791816;30;20355;-76
2022/07/17 13:10:39;;;;;;;2.88;0.65;;;20.60;63.70;;;;;;4792055;30;20139;-76
2022/07/17 13:13:05;;;;;;;1.05;0.40;;;20.60;63.70;;;;;;4790845;30;20063;-75
2022/07/17 13:15:31;;;;;;;1.38;0.60;;;20.60;63.80;;;;;;4791925;30;20059;-76
2022/07/17 13:17:57;;;;;;;1.50;0.70;;;20.60;63.80;;;;;;4791948;30;20055;-76
2022/07/17 13:20:23;;;;;;;1.52;0.80;;;20.60;63.80;;;;;;4791685;30;20051;-76
2022/07/17 13:22:49;;;;;;;1.77;0.73;;;20.60;63.80;;;;;;4790304;30;20417;-76
2022/07/17 13:25:14;;;;;;;1.55;0.60;;;20.60;63.80;;;;;;4791515;30;20056;-76
2022/07/17 13:27:40;;;;;;;1.48;0.50;;;20.60;63.80;;;;;;4791507;30;20471;-77
2022/07/17 13:30:06;;;;;;;1.98;0.60;;;20.60;63.80;;;;;;4791753;30;20057;-75
2022/07/17 13:32:33;;;;;;;2.53;0.82;;;20.60;63.90;;;;;;4791527;30;20122;-74
2022/07/17 13:34:58;;;;;;;5.65;1.23;;;20.60;63.80;;;;;;4791172;30;20359;-75
2022/07/17 13:37:24;;;;;;;2.75;1.13;;;20.60;63.50;;;;;;4791168;30;20047;-76
2022/07/17 13:39:50;;;;;;;1.92;0.80;;;20.60;63.20;;;;;;4791040;30;20051;-73
2022/07/17 13:42:19;;;;;;;3.78;1.23;;;20.70;63.20;;;;;;4791334;30;20051;-73
2022/07/17 13:44:44;;;;;;;3.60;0.93;;;20.70;63.30;;;;;;4790535;29;20116;-73
2022/07/17 13:47:10;;;;;;;2.72;1.00;;;20.70;63.40;;;;;;4791046;30;20138;-73
2022/07/17 13:49:36;;;;;;;1.55;0.80;;;20.70;63.50;;;;;;4790465;30;20063;-73
2022/07/17 13:52:02;;;;;;;2.78;0.90;;;20.70;63.50;;;;;;4791382;30;20197;-73
2022/07/17 13:54:27;;;;;;;4.22;0.90;;;20.70;63.60;;;;;;4791057;30;20111;-74
2022/07/17 13:56:53;;;;;;;3.72;0.90;;;20.70;63.70;;;;;;4791120;30;20124;-74
2022/07/17 13:59:19;;;;;;;5.43;1.60;;;20.70;63.60;;;;;;4790822;30;20059;-75
2022/07/17 14:01:45;;;;;;;3.70;1.27;;;20.70;63.30;;;;;;4790057;30;20077;-75
2022/07/17 14:04:11;;;;;;;6.05;1.63;;;20.70;63.00;;;;;;4790868;30;20047;-73
2022/07/17 14:06:37;;;;;;;11.27;1.83;;;20.70;62.90;;;;;;4790544;30;20053;-71
2022/07/17 14:09:03;;;;;;;4.43;1.42;;;20.80;63.10;;;;;;4790123;30;20082;-75
2022/07/17 14:11:29;;;;;;;5.13;1.20;;;20.80;63.40;;;;;;4790429;30;20394;-74
2022/07/17 14:13:55;;;;;;;2.95;0.85;;;20.80;63.70;;;;;;4790818;30;20055;-73
2022/07/17 14:16:22;;;;;;;4.30;1.20;;;20.80;63.80;;;;;;4790510;30;20460;-72
2022/07/17 14:19:00;;;;;;;1.50;0.77;;;20.80;63.90;;;;;;4805630;29;20051;-72
2022/07/17 14:21:34;;;;;;;3.92;1.30;;;20.80;64.20;;;;;;4807119;29;20299;-72
2022/07/17 14:24:01;;;;;;;3.53;1.05;;;20.80;64.20;;;;;;4792783;29;20571;-71
2022/07/17 14:26:27;;;;;;;8.18;1.40;;;20.80;64.30;;;;;;4789449;30;20129;-76
2022/07/17 14:28:54;;;;;;;4.82;1.50;;;20.80;64.40;;;;;;4789790;30;20094;-74
2022/07/17 14:31:20;;;;;;;5.45;1.17;;;20.90;64.50;;;;;;4790452;30;20051;-74
2022/07/17 14:33:46;;;;;;;3.17;1.20;;;20.90;64.50;;;;;;4790303;30;20348;-74
2022/07/17 14:36:12;;;;;;;6.15;1.63;;;20.90;64.20;;;;;;4790430;30;20048;-74
2022/07/17 14:38:38;;;;;;;2.47;1.30;;;20.90;64.00;;;;;;4790530;30;20122;-75
2022/07/17 14:41:04;;;;;;;5.88;1.23;;;20.90;64.20;;;;;;4773867;30;20061;-74
2022/07/17 14:43:29;;;;;;;4.07;1.20;;;20.90;64.40;;;;;;4790507;30;20085;-75
2022/07/17 14:45:56;;;;;;;1.92;0.82;;;20.90;64.50;;;;;;4789218;30;20112;-76
2022/07/17 15:25:47;;;;;;;4.50;1.75;;;20.90;64.90;;;;;;4817588;29;20074;-72
2022/07/17 15:28:16;;;;;;;3.67;1.38;;;20.90;64.90;;;;;;4808827;29;20086;-76
2022/07/17 15:30:42;;;;;;;3.80;1.52;;;21.00;65.10;;;;;;4825916;29;20389;-75
2022/07/17 15:33:08;;;;;;;4.80;1.80;;;21.00;65.20;;;;;;4825814;29;20051;-75
2022/07/17 15:35:34;;;;;;;3.85;1.45;;;21.00;65.20;;;;;;4809515;29;20081;-74
2022/07/17 15:38:00;;;;;;;8.13;2.05;;;21.00;64.70;;;;;;4824509;29;20101;-75
2022/07/17 15:40:26;;;;;;;7.65;1.77;;;21.00;64.40;;;;;;4825844;29;20082;-75
2022/07/17 15:42:52;;;;;;;4.63;1.67;;;21.10;64.10;;;;;;4826087;29;20097;-76
2022/07/17 15:45:21;;;;;;;6.13;2.17;;;21.10;63.60;;;;;;4825730;29;20046;-75
2022/07/17 15:47:48;;;;;;;9.20;2.03;;;21.10;63.40;;;;;;4825734;29;20062;-76
2022/07/17 15:50:14;;;;;;;5.78;2.00;;;21.20;63.00;;;;;;4825398;29;20058;-74
2022/07/17 15:52:39;;;;;;;4.38;2.17;;;21.20;63.40;;;;;;4825518;29;20058;-75
2022/07/17 15:55:06;;;;;;;6.25;1.60;;;21.20;63.60;;;;;;4826066;29;20058;-76
2022/07/17 15:57:32;;;;;;;6.60;1.60;;;21.20;64.30;;;;;;4809392;29;20365;-76
2022/07/17 15:59:57;;;;;;;7.38;2.03;;;21.20;64.70;;;;;;4825550;29;20052;-75
2022/07/17 16:02:24;;;;;;;7.05;1.90;;;21.20;65.00;;;;;;4825184;29;20110;-75
2022/07/17 16:04:50;;;;;;;12.30;2.22;;;21.20;65.20;;;;;;4825820;29;20378;-74
2022/07/17 16:07:16;;;;;;;7.25;1.80;;;21.20;65.40;;;;;;4825723;29;20054;-75
2022/07/17 16:09:43;;;;;;;4.20;2.20;;;21.30;64.80;;;;;;4827823;29;20046;-76
2022/07/17 16:12:09;;;;;;;5.50;2.00;;;21.30;64.80;;;;;;4828537;29;20141;-76
2022/07/17 16:14:34;;;;;;;10.55;1.90;;;21.40;65.30;;;;;;4828550;29;20125;-76
2022/07/17 16:17:00;;;;;;;6.25;1.60;;;21.40;65.20;;;;;;4813202;29;20050;-75
2022/07/17 16:19:26;;;;;;;7.78;1.98;;;21.40;65.30;;;;;;4828185;29;20122;-76
2022/07/17 16:21:51;;;;;;;8.50;2.00;;;21.40;65.00;;;;;;4828697;29;20478;-77
2022/07/17 16:24:17;;;;;;;7.70;2.35;;;21.40;64.60;;;;;;4828781;29;20046;-78
2022/07/17 16:26:44;;;;;;;14.23;2.58;;;21.40;64.80;;;;;;4827732;29;20497;-76
2022/07/17 16:29:10;;;;;;;6.40;1.90;;;21.40;64.90;;;;;;4828608;29;20046;-77
2022/07/17 16:31:37;;;;;;;8.23;2.00;;;21.40;65.30;;;;;;4828335;29;20424;-76
2022/07/17 16:34:02;;;;;;;12.13;2.63;;;21.40;65.10;;;;;;4828535;29;20162;-79
2022/07/17 16:36:28;;;;;;;7.05;1.90;;;21.50;64.60;;;;;;4812884;29;20099;-77
2022/07/17 16:38:54;;;;;;;5.82;2.22;;;21.50;64.30;;;;;;4812198;29;20058;-78
2022/07/17 16:41:20;;;;;;;10.27;2.78;;;21.50;63.90;;;;;;4828672;29;20500;-78
2022/07/17 16:43:46;;;;;;;8.95;2.47;;;21.50;64.20;;;;;;4828498;29;20434;-79
2022/07/17 16:46:11;;;;;;;8.18;2.10;;;21.50;64.30;;;;;;4813176;29;20101;-79
2022/07/17 16:48:37;;;;;;;6.68;2.58;;;21.50;64.80;;;;;;4828133;29;20054;-79
2022/07/17 16:51:03;;;;;;;10.85;2.33;;;21.50;64.90;;;;;;4812295;29;20408;-79
2022/07/17 16:53:29;;;;;;;8.10;2.45;;;21.50;64.90;;;;;;4828488;29;20058;-82
2022/07/17 16:55:55;;;;;;;10.05;2.22;;;21.50;65.10;;;;;;4828307;29;20061;-78
2022/07/17 16:58:21;;;;;;;6.35;2.50;;;21.50;65.20;;;;;;4828338;29;20046;-78
2022/07/17 17:00:46;;;;;;;8.63;2.33;;;21.60;65.20;;;;;;4827728;29;20050;-79
2022/07/17 17:03:12;;;;;;;8.68;2.65;;;21.50;65.10;;;;;;4811974;29;20133;-80
2022/07/17 17:05:38;;;;;;;8.73;2.05;;;21.60;65.10;;;;;;4827886;29;20050;-79
2022/07/17 17:08:04;;;;;;;4.75;2.28;;;21.60;65.10;;;;;;4828179;29;20474;-77
2022/07/17 17:10:30;;;;;;;4.10;1.55;;;21.50;65.10;;;;;;4827794;29;20046;-72
2022/07/17 17:12:56;;;;;;;6.15;1.98;;;21.50;65.00;;;;;;4827922;29;20050;-80
2022/07/17 17:15:22;;;;;;;4.93;2.28;;;21.50;64.90;;;;;;4812027;29;20077;-79
2022/07/17 17:17:48;;;;;;;5.20;1.98;;;21.50;64.90;;;;;;4812710;29;20123;-79
2022/07/17 17:20:14;;;;;;;6.47;1.92;;;21.50;65.00;;;;;;4826278;29;20373;-80
2022/07/17 17:22:40;;;;;;;4.07;2.28;;;21.50;65.20;;;;;;4828122;29;20194;-80
2022/07/17 17:25:07;;;;;;;3.78;2.30;;;21.50;65.30;;;;;;4827804;29;20362;-79
2022/07/17 17:27:33;;;;;;;8.70;2.30;;;21.50;65.30;;;;;;4827891;29;20066;-77
2022/07/17 17:29:59;;;;;;;5.38;1.98;;;21.50;65.30;;;;;;4811387;29;20058;-79
2022/07/17 17:32:25;;;;;;;4.68;2.05;;;21.50;65.20;;;;;;4827377;29;20050;-79
2022/07/17 17:34:50;;;;;;;5.38;2.13;;;21.50;65.80;;;;;;4828321;29;20050;-78
2022/07/17 17:37:17;;;;;;;4.75;1.92;;;21.50;65.30;;;;;;4812043;29;20513;-78
2022/07/17 17:39:43;;;;;;;3.15;1.70;;;21.50;65.20;;;;;;4811220;29;20133;-79
2022/07/17 17:42:08;;;;;;;3.67;2.30;;;21.50;65.30;;;;;;4811472;29;20142;-81
2022/07/17 17:44:34;;;;;;;4.20;1.70;;;21.50;65.40;;;;;;4827699;29;20125;-79
2022/07/17 17:47:00;;;;;;;5.10;1.67;;;21.50;65.40;;;;;;4827641;29;20054;-79
2022/07/17 17:49:27;;;;;;;4.13;2.05;;;21.50;65.50;;;;;;4811223;29;20076;-78
2022/07/17 17:51:53;;;;;;;2.70;1.45;;;21.50;65.60;;;;;;4827444;29;20108;-77
2022/07/17 17:54:19;;;;;;;7.65;1.83;;;21.50;65.50;;;;;;4827615;29;20054;-74
2022/07/17 17:56:46;;;;;;;5.15;1.60;;;21.40;65.40;;;;;;4827520;29;20054;-80
2022/07/17 17:59:12;;;;;;;7.05;2.22;;;21.50;64.90;;;;;;4811150;29;20051;-79
2022/07/17 18:38:03;;;;;;;9.35;2.53;;;21.60;60.20;;;;;;5800485;23;20294;-78
2022/07/17 18:40:34;;;;;;;;;;;21.60;60.20;;;;;;4870185;29;20057;-78
2022/07/17 19:50:11;;;;;;;4.90;2.55;;;21.50;63.00;;;;;;4841466;29;20081;-75
2022/07/17 19:52:39;;;;;;;7.45;3.97;;;21.50;62.80;;;;;;4846678;29;20433;-79
2022/07/17 19:55:06;;;;;;;6.30;3.38;;;21.50;63.20;;;;;;4847153;29;20133;-78
2022/07/17 19:57:32;;;;;;;5.45;2.97;;;21.40;63.40;;;;;;4846756;29;20053;-77
2022/07/17 19:59:57;;;;;;;5.75;2.33;;;21.40;63.70;;;;;;4847599;29;20069;-78
2022/07/17 20:02:23;;;;;;;5.30;3.15;;;21.30;63.90;;;;;;4847276;29;20054;-82
2022/07/17 20:04:49;;;;;;;4.47;2.72;;;21.30;64.10;;;;;;4847724;29;20053;-79
2022/07/17 20:07:15;;;;;;;5.25;2.75;;;21.20;64.10;;;;;;4830789;29;20419;-79
2022/07/17 20:09:41;;;;;;;5.07;2.92;;;21.20;64.00;;;;;;4847228;29;20050;-78
2022/07/17 20:12:06;;;;;;;4.75;3.15;;;21.20;64.10;;;;;;4847383;29;20061;-78
2022/07/17 20:14:32;;;;;;;4.47;3.47;;;21.20;64.40;;;;;;4847321;29;20060;-78
2022/07/17 20:17:08;;;;;;;6.22;3.55;;;21.10;64.60;;;;;;4846440;29;20057;-81
2022/07/17 20:19:33;;;;;;;4.32;2.67;;;21.10;64.50;;;;;;4827323;29;20089;-80
2022/07/17 20:21:59;;;;;;;3.95;2.42;;;21.00;64.50;;;;;;4846167;29;20069;-77
2022/07/17 20:24:25;;;;;;;5.13;3.13;;;21.00;64.20;;;;;;4846195;29;20426;-79
2022/07/17 20:26:51;;;;;;;4.53;3.33;;;20.90;64.20;;;;;;4841608;29;20065;-75
2022/07/17 20:29:17;;;;;;;4.65;3.58;;;20.90;64.40;;;;;;4845678;29;20066;-79
2022/07/17 20:31:42;;;;;;;6.30;4.28;;;20.80;64.40;;;;;;4845931;29;20190;-77
2022/07/17 20:34:08;;;;;;;6.72;4.60;;;20.80;64.60;;;;;;4845837;29;20113;-74
2022/07/17 20:36:35;;;;;;;6.13;3.92;;;20.70;65.10;;;;;;4832167;29;20050;-77
2022/07/17 20:39:02;;;;;;;5.05;4.13;;;20.70;65.50;;;;;;4828355;29;20129;-79
2022/07/17 20:41:28;;;;;;;5.90;3.55;;;20.70;65.80;;;;;;4845574;29;20058;-77
2022/07/17 20:43:53;;;;;;;7.05;4.32;;;20.70;66.00;;;;;;4845816;29;20050;-72
2022/07/17 20:46:21;;;;;;;4.75;3.78;;;20.60;66.00;;;;;;4845380;29;20477;-72
2022/07/17 20:48:48;;;;;;;6.07;3.75;;;20.60;66.30;;;;;;4845683;29;20058;-78
2022/07/17 20:51:14;;;;;;;8.43;4.07;;;20.60;66.20;;;;;;4845309;29;20089;-78
2022/07/17 20:53:41;;;;;;;5.63;3.55;;;20.60;66.30;;;;;;4845587;29;20075;-77
2022/07/17 20:56:07;;;;;;;5.10;3.58;;;20.50;66.30;;;;;;4846309;29;20456;-76
2022/07/17 20:58:33;;;;;;;6.03;3.92;;;20.50;66.40;;;;;;4830394;29;20149;-77
2022/07/17 21:01:00;;;;;;;4.93;3.97;;;20.50;66.60;;;;;;4846380;29;20045;-77
2022/07/17 21:03:27;;;;;;;5.10;4.30;;;20.40;66.70;;;;;;4830461;29;20064;-78
2022/07/17 21:05:55;;;;;;;6.35;3.50;;;20.40;67.20;;;;;;4845574;29;20054;-78
2022/07/17 21:08:25;;;;;;;7.57;3.80;;;20.40;67.40;;;;;;4846477;29;20061;-77
2022/07/17 21:10:53;;;;;;;6.35;4.35;;;20.40;67.60;;;;;;4846458;29;20445;-76
2022/07/17 21:13:22;;;;;;;5.55;3.53;;;20.40;67.60;;;;;;4842134;29;20465;-76
2022/07/17 21:15:50;;;;;;;6.00;4.43;;;20.50;67.80;;;;;;4846074;29;20109;-76
2022/07/17 21:18:17;;;;;;;4.00;3.53;;;20.50;67.80;;;;;;4846005;29;20082;-78
2022/07/17 21:20:43;;;;;;;4.65;3.40;;;20.50;67.80;;;;;;4845917;29;20154;-77
2022/07/17 21:23:08;;;;;;;4.07;3.53;;;20.60;67.80;;;;;;4829828;29;20448;-78
2022/07/17 21:25:34;;;;;;;6.75;3.80;;;20.60;67.80;;;;;;4845901;29;20053;-77
2022/07/17 21:28:00;;;;;;;5.22;3.47;;;20.60;67.80;;;;;;4846068;29;20058;-78
2022/07/17 21:30:26;;;;;;;4.60;3.28;;;20.60;67.90;;;;;;4846188;29;20473;-78
2022/07/17 21:32:52;;;;;;;4.28;3.13;;;20.60;67.90;;;;;;4845984;29;20153;-81
